sensor_id;sensor_type;location;lat;lon;timestamp;temperature;humidity
4306;DHT22;2166;49.926;8.608;2022-09-29T00:00:47;7.70;83.80
4306;DHT22;2166;49.926;8.608;2022-09-29T00:03:15;7.70;83.90
4306;DHT22;2166;49.926;8.608;2022-09-29T00:05:47;7.80;83.90
4306;DHT22;2166;49.926;8.608;2022-09-29T00:08:15;7.80;83.90
4306;DHT22;2166;49.926;8.608;2022-09-29T00:10:43;7.80;83.90
4306;DHT22;2166;49.926;8.608;2022-09-29T00:13:12;7.80;83.70
4306;DHT22;2166;49.926;8.608;2022-09-29T00:15:41;7.80;83.70
4306;DHT22;2166;49.926;8.608;2022-09-29T00:18:09;7.70;83.60
4306;DHT22;2166;49.926;8.608;2022-09-29T00:20:40;7.70;83.70
4306;DHT22;2166;49.926;8.608;2022-09-29T00:23:08;7.70;83.70
4306;DHT22;2166;49.926;8.608;2022-09-29T00:25:38;7.80;83.90
4306;DHT22;2166;49.926;8.608;2022-09-29T00:28:06;7.90;84.00
4306;DHT22;2166;49.926;8.608;2022-09-29T00:30:33;7.90;84.00
4306;DHT22;2166;49.926;8.608;2022-09-29T00:33:03;7.90;84.00
4306;DHT22;2166;49.926;8.608;2022-09-29T00:35:30;8.00;83.90
4306;DHT22;2166;49.926;8.608;2022-09-29T00:37:58;8.10;83.90
4306;DHT22;2166;49.926;8.608;2022-09-29T00:40:26;8.10;83.90
4306;DHT22;2166;49.926;8.608;2022-09-29T00:42:54;8.20;83.90
4306;DHT22;2166;49.926;8.608;2022-09-29T00:45:22;8.20;83.80
4306;DHT22;2166;49.926;8.608;2022-09-29T00:47:53;8.30;83.90
4306;DHT22;2166;49.926;8.608;2022-09-29T00:50:24;8.30;83.80
4306;DHT22;2166;49.926;8.608;2022-09-29T00:52:54;8.30;83.60
4306;DHT22;2166;49.926;8.608;2022-09-29T00:55:24;8.30;83.50
4306;DHT22;2166;49.926;8.608;2022-09-29T00:57:52;8.30;83.40
4306;DHT22;2166;49.926;8.608;2022-09-29T01:00:22;8.30;83.20
4306;DHT22;2166;49.926;8.608;2022-09-29T01:02:51;8.20;83.10
4306;DHT22;2166;49.926;8.608;2022-09-29T01:05:20;8.20;83.10
4306;DHT22;2166;49.926;8.608;2022-09-29T01:07:51;8.10;83.10
4306;DHT22;2166;49.926;8.608;2022-09-29T01:10:19;8.00;83.10
4306;DHT22;2166;49.926;8.608;2022-09-29T01:12:47;7.90;83.00
4306;DHT22;2166;49.926;8.608;2022-09-29T01:15:16;7.90;83.10
4306;DHT22;2166;49.926;8.608;2022-09-29T01:17:45;7.90;83.30
4306;DHT22;2166;49.926;8.608;2022-09-29T01:20:13;7.80;83.10
4306;DHT22;2166;49.926;8.608;2022-09-29T01:22:51;7.70;83.20
4306;DHT22;2166;49.926;8.608;2022-09-29T01:25:34;7.60;83.20
4306;DHT22;2166;49.926;8.608;2022-09-29T01:31:03;7.60;83.20
4306;DHT22;2166;49.926;8.608;2022-09-29T01:33:33;7.50;83.30
4306;DHT22;2166;49.926;8.608;2022-09-29T01:36:04;7.50;83.20
4306;DHT22;2166;49.926;8.608;2022-09-29T01:38:44;7.40;83.30
4306;DHT22;2166;49.926;8.608;2022-09-29T01:41:15;7.40;83.20
4306;DHT22;2166;49.926;8.608;2022-09-29T01:43:45;7.30;83.20
4306;DHT22;2166;49.926;8.608;2022-09-29T01:46:19;7.30;83.20
4306;DHT22;2166;49.926;8.608;2022-09-29T01:48:48;7.20;83.40
4306;DHT22;2166;49.926;8.608;2022-09-29T01:51:18;7.20;83.30
4306;DHT22;2166;49.926;8.608;2022-09-29T01:53:48;7.10;83.20
4306;DHT22;2166;49.926;8.608;2022-09-29T01:56:17;7.00;83.10
4306;DHT22;2166;49.926;8.608;2022-09-29T01:58:48;7.00;83.30
4306;DHT22;2166;49.926;8.608;2022-09-29T02:01:21;6.90;83.40
4306;DHT22;2166;49.926;8.608;2022-09-29T02:03:50;6.80;83.20
4306;DHT22;2166;49.926;8.608;2022-09-29T02:06:20;6.70;83.20
4306;DHT22;2166;49.926;8.608;2022-09-29T02:08:50;6.70;83.20
4306;DHT22;2166;49.926;8.608;2022-09-29T02:11:19;6.60;83.40
4306;DHT22;2166;49.926;8.608;2022-09-29T02:13:48;6.60;83.40
4306;DHT22;2166;49.926;8.608;2022-09-29T02:16:18;6.50;83.30
4306;DHT22;2166;49.926;8.608;2022-09-29T02:18:51;6.50;83.40
4306;DHT22;2166;49.926;8.608;2022-09-29T02:21:25;6.40;83.50
4306;DHT22;2166;49.926;8.608;2022-09-29T02:23:54;6.40;83.50
4306;DHT22;2166;49.926;8.608;2022-09-29T02:26:22;6.40;83.70
4306;DHT22;2166;49.926;8.608;2022-09-29T02:28:50;6.40;83.80
4306;DHT22;2166;49.926;8.608;2022-09-29T02:31:18;6.40;83.80
4306;DHT22;2166;49.926;8.608;2022-09-29T02:33:46;6.40;83.90
4306;DHT22;2166;49.926;8.608;2022-09-29T02:36:19;6.50;84.10
4306;DHT22;2166;49.926;8.608;2022-09-29T02:38:52;6.40;84.10
4306;DHT22;2166;49.926;8.608;2022-09-29T02:41:27;6.50;84.20
4306;DHT22;2166;49.926;8.608;2022-09-29T02:46:43;6.60;84.30
4306;DHT22;2166;49.926;8.608;2022-09-29T02:49:23;6.60;84.20
4306;DHT22;2166;49.926;8.608;2022-09-29T02:51:54;6.60;84.20
4306;DHT22;2166;49.926;8.608;2022-09-29T02:54:28;6.70;84.20
4306;DHT22;2166;49.926;8.608;2022-09-29T02:57:00;6.70;84.20
4306;DHT22;2166;49.926;8.608;2022-09-29T02:59:33;6.80;84.50
4306;DHT22;2166;49.926;8.608;2022-09-29T03:02:02;6.90;84.40
4306;DHT22;2166;49.926;8.608;2022-09-29T03:04:30;6.90;84.30
4306;DHT22;2166;49.926;8.608;2022-09-29T03:06:59;7.00;84.30
4306;DHT22;2166;49.926;8.608;2022-09-29T03:09:27;7.00;84.30
4306;DHT22;2166;49.926;8.608;2022-09-29T03:11:55;7.10;84.30
4306;DHT22;2166;49.926;8.608;2022-09-29T03:14:24;7.10;84.30
4306;DHT22;2166;49.926;8.608;2022-09-29T03:16:51;7.20;84.30
4306;DHT22;2166;49.926;8.608;2022-09-29T03:19:19;7.30;84.30
4306;DHT22;2166;49.926;8.608;2022-09-29T03:21:47;7.40;84.30
4306;DHT22;2166;49.926;8.608;2022-09-29T03:24:17;7.50;84.30
4306;DHT22;2166;49.926;8.608;2022-09-29T03:26:45;7.50;84.20
4306;DHT22;2166;49.926;8.608;2022-09-29T03:29:13;7.70;84.20
4306;DHT22;2166;49.926;8.608;2022-09-29T03:31:41;7.70;84.20
4306;DHT22;2166;49.926;8.608;2022-09-29T03:34:09;7.80;84.00
4306;DHT22;2166;49.926;8.608;2022-09-29T03:36:37;7.80;84.00
4306;DHT22;2166;49.926;8.608;2022-09-29T03:39:07;7.90;84.00
4306;DHT22;2166;49.926;8.608;2022-09-29T03:41:36;7.90;84.10
4306;DHT22;2166;49.926;8.608;2022-09-29T03:44:04;8.00;84.00
4306;DHT22;2166;49.926;8.608;2022-09-29T03:46:32;8.20;84.20
4306;DHT22;2166;49.926;8.608;2022-09-29T03:49:00;8.20;84.00
4306;DHT22;2166;49.926;8.608;2022-09-29T03:51:28;8.20;83.90
4306;DHT22;2166;49.926;8.608;2022-09-29T03:53:56;8.30;84.10
4306;DHT22;2166;49.926;8.608;2022-09-29T03:56:23;8.30;84.00
4306;DHT22;2166;49.926;8.608;2022-09-29T03:58:55;8.40;83.90
4306;DHT22;2166;49.926;8.608;2022-09-29T04:01:23;8.40;84.10
4306;DHT22;2166;49.926;8.608;2022-09-29T04:03:51;8.50;84.30
4306;DHT22;2166;49.926;8.608;2022-09-29T04:06:21;8.50;84.40
4306;DHT22;2166;49.926;8.608;2022-09-29T04:08:49;8.60;84.40
4306;DHT22;2166;49.926;8.608;2022-09-29T04:11:17;8.70;84.40
4306;DHT22;2166;49.926;8.608;2022-09-29T04:13:45;8.70;84.30
4306;DHT22;2166;49.926;8.608;2022-09-29T04:16:14;8.80;84.40
4306;DHT22;2166;49.926;8.608;2022-09-29T04:18:42;8.90;84.40
4306;DHT22;2166;49.926;8.608;2022-09-29T04:21:10;9.00;84.50
4306;DHT22;2166;49.926;8.608;2022-09-29T04:23:38;9.00;84.40
4306;DHT22;2166;49.926;8.608;2022-09-29T04:26:07;9.00;84.30
4306;DHT22;2166;49.926;8.608;2022-09-29T04:28:35;9.10;84.20
4306;DHT22;2166;49.926;8.608;2022-09-29T04:31:03;9.10;84.30
4306;DHT22;2166;49.926;8.608;2022-09-29T04:33:33;9.10;84.10
4306;DHT22;2166;49.926;8.608;2022-09-29T04:36:01;9.20;84.10
4306;DHT22;2166;49.926;8.608;2022-09-29T04:38:29;9.20;84.00
4306;DHT22;2166;49.926;8.608;2022-09-29T04:40:57;9.30;84.00
4306;DHT22;2166;49.926;8.608;2022-09-29T04:43:25;9.30;83.70
4306;DHT22;2166;49.926;8.608;2022-09-29T04:45:59;9.30;83.50
4306;DHT22;2166;49.926;8.608;2022-09-29T04:48:27;9.30;83.50
4306;DHT22;2166;49.926;8.608;2022-09-29T04:51:04;9.30;83.60
4306;DHT22;2166;49.926;8.608;2022-09-29T04:53:33;9.30;83.60
4306;DHT22;2166;49.926;8.608;2022-09-29T04:56:03;9.30;83.60
4306;DHT22;2166;49.926;8.608;2022-09-29T04:58:31;9.40;83.50
4306;DHT22;2166;49.926;8.608;2022-09-29T05:01:06;9.40;83.40
4306;DHT22;2166;49.926;8.608;2022-09-29T05:03:34;9.30;83.20
4306;DHT22;2166;49.926;8.608;2022-09-29T05:06:02;9.30;83.20
4306;DHT22;2166;49.926;8.608;2022-09-29T05:08:31;9.30;83.10
4306;DHT22;2166;49.926;8.608;2022-09-29T05:11:01;9.30;83.00
4306;DHT22;2166;49.926;8.608;2022-09-29T05:13:29;9.20;83.00
4306;DHT22;2166;49.926;8.608;2022-09-29T05:15:57;9.20;83.10
4306;DHT22;2166;49.926;8.608;2022-09-29T05:18:25;9.20;83.10
4306;DHT22;2166;49.926;8.608;2022-09-29T05:20:53;9.20;83.20
4306;DHT22;2166;49.926;8.608;2022-09-29T05:23:42;9.30;83.40
4306;DHT22;2166;49.926;8.608;2022-09-29T05:26:11;9.30;83.30
4306;DHT22;2166;49.926;8.608;2022-09-29T05:28:42;9.40;83.20
4306;DHT22;2166;49.926;8.608;2022-09-29T05:31:10;9.40;83.10
4306;DHT22;2166;49.926;8.608;2022-09-29T05:33:38;9.40;83.10
4306;DHT22;2166;49.926;8.608;2022-09-29T05:36:06;9.40;83.10
4306;DHT22;2166;49.926;8.608;2022-09-29T05:38:34;9.40;83.10
4306;DHT22;2166;49.926;8.608;2022-09-29T05:41:04;9.40;83.00
4306;DHT22;2166;49.926;8.608;2022-09-29T05:43:32;9.40;83.10
4306;DHT22;2166;49.926;8.608;2022-09-29T05:46:00;9.30;83.10
4306;DHT22;2166;49.926;8.608;2022-09-29T05:48:28;9.30;83.10
4306;DHT22;2166;49.926;8.608;2022-09-29T05:50:57;9.30;83.20
4306;DHT22;2166;49.926;8.608;2022-09-29T05:53:25;9.30;83.00
4306;DHT22;2166;49.926;8.608;2022-09-29T05:55:53;9.30;83.10
4306;DHT22;2166;49.926;8.608;2022-09-29T05:58:22;9.10;83.10
4306;DHT22;2166;49.926;8.608;2022-09-29T06:00:50;9.10;83.30
4306;DHT22;2166;49.926;8.608;2022-09-29T06:03:18;9.10;83.40
4306;DHT22;2166;49.926;8.608;2022-09-29T06:05:46;8.90;83.30
4306;DHT22;2166;49.926;8.608;2022-09-29T06:08:14;8.90;83.50
4306;DHT22;2166;49.926;8.608;2022-09-29T06:10:42;9.00;83.70
4306;DHT22;2166;49.926;8.608;2022-09-29T06:13:10;9.00;83.70
4306;DHT22;2166;49.926;8.608;2022-09-29T06:15:39;9.10;83.60
4306;DHT22;2166;49.926;8.608;2022-09-29T06:18:07;9.20;83.60
4306;DHT22;2166;49.926;8.608;2022-09-29T06:20:35;9.30;83.50
4306;DHT22;2166;49.926;8.608;2022-09-29T06:23:04;9.30;83.40
4306;DHT22;2166;49.926;8.608;2022-09-29T06:25:32;9.40;83.40
4306;DHT22;2166;49.926;8.608;2022-09-29T06:28:00;9.40;83.40
4306;DHT22;2166;49.926;8.608;2022-09-29T06:30:28;9.50;83.40
4306;DHT22;2166;49.926;8.608;2022-09-29T06:32:58;9.50;83.20
4306;DHT22;2166;49.926;8.608;2022-09-29T06:35:25;9.50;83.20
4306;DHT22;2166;49.926;8.608;2022-09-29T06:38:11;9.60;83.20
4306;DHT22;2166;49.926;8.608;2022-09-29T06:40:39;9.70;83.20
4306;DHT22;2166;49.926;8.608;2022-09-29T06:43:07;9.90;83.10
4306;DHT22;2166;49.926;8.608;2022-09-29T06:45:37;10.00;83.00
4306;DHT22;2166;49.926;8.608;2022-09-29T06:48:06;10.10;83.10
4306;DHT22;2166;49.926;8.608;2022-09-29T06:50:35;10.20;83.10
4306;DHT22;2166;49.926;8.608;2022-09-29T06:53:03;10.30;82.80
4306;DHT22;2166;49.926;8.608;2022-09-29T06:55:31;10.40;82.80
4306;DHT22;2166;49.926;8.608;2022-09-29T06:57:59;10.40;82.80
4306;DHT22;2166;49.926;8.608;2022-09-29T07:00:29;10.50;82.50
4306;DHT22;2166;49.926;8.608;2022-09-29T07:02:58;10.40;82.00
4306;DHT22;2166;49.926;8.608;2022-09-29T07:05:27;10.40;82.10
4306;DHT22;2166;49.926;8.608;2022-09-29T07:07:55;10.60;82.20
4306;DHT22;2166;49.926;8.608;2022-09-29T07:10:27;10.60;82.10
4306;DHT22;2166;49.926;8.608;2022-09-29T07:12:54;10.60;81.60
4306;DHT22;2166;49.926;8.608;2022-09-29T07:15:22;10.50;81.40
4306;DHT22;2166;49.926;8.608;2022-09-29T07:17:57;10.50;81.40
4306;DHT22;2166;49.926;8.608;2022-09-29T07:20:26;10.40;81.50
4306;DHT22;2166;49.926;8.608;2022-09-29T07:22:55;10.40;81.80
4306;DHT22;2166;49.926;8.608;2022-09-29T07:25:24;10.40;81.80
4306;DHT22;2166;49.926;8.608;2022-09-29T07:28:12;10.30;81.70
4306;DHT22;2166;49.926;8.608;2022-09-29T07:30:40;10.20;81.90
4306;DHT22;2166;49.926;8.608;2022-09-29T07:33:08;10.30;81.90
4306;DHT22;2166;49.926;8.608;2022-09-29T07:35:36;10.30;81.80
4306;DHT22;2166;49.926;8.608;2022-09-29T07:38:07;10.30;82.00
4306;DHT22;2166;49.926;8.608;2022-09-29T07:40:35;10.20;81.70
4306;DHT22;2166;49.926;8.608;2022-09-29T07:43:04;10.20;81.90
4306;DHT22;2166;49.926;8.608;2022-09-29T07:45:33;10.20;82.10
4306;DHT22;2166;49.926;8.608;2022-09-29T07:48:02;10.30;82.00
4306;DHT22;2166;49.926;8.608;2022-09-29T07:50:30;10.30;82.00
4306;DHT22;2166;49.926;8.608;2022-09-29T07:52:58;10.10;81.50
4306;DHT22;2166;49.926;8.608;2022-09-29T07:55:27;10.00;81.70
4306;DHT22;2166;49.926;8.608;2022-09-29T07:57:55;10.10;82.00
4306;DHT22;2166;49.926;8.608;2022-09-29T08:00:24;10.10;82.20
4306;DHT22;2166;49.926;8.608;2022-09-29T08:02:52;10.20;82.30
4306;DHT22;2166;49.926;8.608;2022-09-29T08:05:21;10.30;82.30
4306;DHT22;2166;49.926;8.608;2022-09-29T08:07:50;10.50;82.30
4306;DHT22;2166;49.926;8.608;2022-09-29T08:10:18;10.70;82.10
4306;DHT22;2166;49.926;8.608;2022-09-29T08:12:48;10.80;81.80
4306;DHT22;2166;49.926;8.608;2022-09-29T08:15:16;10.80;81.60
4306;DHT22;2166;49.926;8.608;2022-09-29T08:17:44;10.90;81.50
4306;DHT22;2166;49.926;8.608;2022-09-29T08:20:12;10.90;81.50
4306;DHT22;2166;49.926;8.608;2022-09-29T08:22:41;10.80;81.10
4306;DHT22;2166;49.926;8.608;2022-09-29T08:25:09;10.80;81.20
4306;DHT22;2166;49.926;8.608;2022-09-29T08:27:37;10.90;81.20
4306;DHT22;2166;49.926;8.608;2022-09-29T08:30:22;11.10;81.10
4306;DHT22;2166;49.926;8.608;2022-09-29T08:32:50;11.00;80.60
4306;DHT22;2166;49.926;8.608;2022-09-29T08:35:18;11.30;80.70
4306;DHT22;2166;49.926;8.608;2022-09-29T08:37:47;11.60;80.70
4306;DHT22;2166;49.926;8.608;2022-09-29T08:40:15;12.00;80.90
4306;DHT22;2166;49.926;8.608;2022-09-29T08:42:47;12.50;80.10
4306;DHT22;2166;49.926;8.608;2022-09-29T08:45:18;12.70;79.40
4306;DHT22;2166;49.926;8.608;2022-09-29T08:47:52;12.90;78.20
4306;DHT22;2166;49.926;8.608;2022-09-29T08:50:28;12.90;77.70
4306;DHT22;2166;49.926;8.608;2022-09-29T08:52:59;12.90;77.90
4306;DHT22;2166;49.926;8.608;2022-09-29T08:55:32;12.90;77.90
4306;DHT22;2166;49.926;8.608;2022-09-29T08:58:01;13.00;76.90
4306;DHT22;2166;49.926;8.608;2022-09-29T09:00:32;12.90;77.40
4306;DHT22;2166;49.926;8.608;2022-09-29T09:06:11;13.20;76.60
4306;DHT22;2166;49.926;8.608;2022-09-29T09:08:45;13.40;77.20
4306;DHT22;2166;49.926;8.608;2022-09-29T09:11:21;13.60;76.80
4306;DHT22;2166;49.926;8.608;2022-09-29T09:13:55;13.80;76.70
4306;DHT22;2166;49.926;8.608;2022-09-29T09:16:31;13.90;75.70
4306;DHT22;2166;49.926;8.608;2022-09-29T09:19:12;13.90;75.50
4306;DHT22;2166;49.926;8.608;2022-09-29T09:21:51;13.70;75.50
4306;DHT22;2166;49.926;8.608;2022-09-29T09:24:26;13.60;76.50
4306;DHT22;2166;49.926;8.608;2022-09-29T09:26:56;13.70;76.70
4306;DHT22;2166;49.926;8.608;2022-09-29T09:29:27;13.90;76.50
4306;DHT22;2166;49.926;8.608;2022-09-29T09:32:04;13.90;74.50
4306;DHT22;2166;49.926;8.608;2022-09-29T09:34:34;13.90;75.30
4306;DHT22;2166;49.926;8.608;2022-09-29T09:37:12;14.10;74.70
4306;DHT22;2166;49.926;8.608;2022-09-29T09:39:44;14.20;75.00
4306;DHT22;2166;49.926;8.608;2022-09-29T09:42:14;14.30;74.50
4306;DHT22;2166;49.926;8.608;2022-09-29T09:44:45;14.20;74.00
4306;DHT22;2166;49.926;8.608;2022-09-29T09:47:20;14.30;74.10
4306;DHT22;2166;49.926;8.608;2022-09-29T09:49:51;14.30;73.50
4306;DHT22;2166;49.926;8.608;2022-09-29T09:52:23;14.20;74.20
4306;DHT22;2166;49.926;8.608;2022-09-29T09:54:53;13.90;74.10
4306;DHT22;2166;49.926;8.608;2022-09-29T09:57:34;13.80;74.80
4306;DHT22;2166;49.926;8.608;2022-09-29T10:00:08;13.80;74.40
4306;DHT22;2166;49.926;8.608;2022-09-29T10:02:42;13.80;74.10
4306;DHT22;2166;49.926;8.608;2022-09-29T10:05:12;14.00;74.80
4306;DHT22;2166;49.926;8.608;2022-09-29T10:07:42;14.40;74.80
4306;DHT22;2166;49.926;8.608;2022-09-29T10:10:13;14.80;73.50
4306;DHT22;2166;49.926;8.608;2022-09-29T10:12:42;15.00;72.70
4306;DHT22;2166;49.926;8.608;2022-09-29T10:15:16;15.30;72.10
4306;DHT22;2166;49.926;8.608;2022-09-29T10:17:45;15.60;71.70
4306;DHT22;2166;49.926;8.608;2022-09-29T10:20:27;15.90;70.70
4306;DHT22;2166;49.926;8.608;2022-09-29T10:23:00;16.10;70.70
4306;DHT22;2166;49.926;8.608;2022-09-29T10:25:49;16.50;70.70
4306;DHT22;2166;49.926;8.608;2022-09-29T10:28:18;16.80;70.40
4306;DHT22;2166;49.926;8.608;2022-09-29T10:30:46;17.10;70.00
4306;DHT22;2166;49.926;8.608;2022-09-29T10:33:16;17.50;69.40
4306;DHT22;2166;49.926;8.608;2022-09-29T10:35:45;17.60;68.90
4306;DHT22;2166;49.926;8.608;2022-09-29T10:38:16;17.80;68.70
4306;DHT22;2166;49.926;8.608;2022-09-29T10:40:54;18.00;68.60
4306;DHT22;2166;49.926;8.608;2022-09-29T10:43:24;18.10;68.30
4306;DHT22;2166;49.926;8.608;2022-09-29T10:45:53;18.20;67.50
4306;DHT22;2166;49.926;8.608;2022-09-29T10:48:25;18.20;67.70
4306;DHT22;2166;49.926;8.608;2022-09-29T10:50:54;18.30;67.10
4306;DHT22;2166;49.926;8.608;2022-09-29T10:53:25;18.40;67.00
4306;DHT22;2166;49.926;8.608;2022-09-29T10:55:58;18.90;66.20
4306;DHT22;2166;49.926;8.608;2022-09-29T10:58:28;19.20;64.80
4306;DHT22;2166;49.926;8.608;2022-09-29T11:01:18;19.50;64.50
4306;DHT22;2166;49.926;8.608;2022-09-29T11:03:47;19.70;63.80
4306;DHT22;2166;49.926;8.608;2022-09-29T11:06:19;19.60;62.30
4306;DHT22;2166;49.926;8.608;2022-09-29T11:08:59;19.80;62.30
4306;DHT22;2166;49.926;8.608;2022-09-29T11:11:28;19.80;61.30
4306;DHT22;2166;49.926;8.608;2022-09-29T11:13:57;19.80;61.90
4306;DHT22;2166;49.926;8.608;2022-09-29T11:16:26;20.10;61.60
4306;DHT22;2166;49.926;8.608;2022-09-29T11:18:54;20.10;60.80
4306;DHT22;2166;49.926;8.608;2022-09-29T11:24:12;19.80;61.40
4306;DHT22;2166;49.926;8.608;2022-09-29T11:26:44;19.80;61.10
4306;DHT22;2166;49.926;8.608;2022-09-29T11:29:20;20.00;61.10
4306;DHT22;2166;49.926;8.608;2022-09-29T11:31:58;20.20;61.30
4306;DHT22;2166;49.926;8.608;2022-09-29T11:34:33;20.90;59.70
4306;DHT22;2166;49.926;8.608;2022-09-29T11:37:04;21.30;59.00
4306;DHT22;2166;49.926;8.608;2022-09-29T11:39:40;21.30;57.60
4306;DHT22;2166;49.926;8.608;2022-09-29T11:42:17;21.30;59.50
4306;DHT22;2166;49.926;8.608;2022-09-29T11:44:59;21.50;57.60
4306;DHT22;2166;49.926;8.608;2022-09-29T11:47:33;21.50;58.70
4306;DHT22;2166;49.926;8.608;2022-09-29T11:50:17;21.40;59.00
4306;DHT22;2166;49.926;8.608;2022-09-29T11:52:55;21.70;58.40
4306;DHT22;2166;49.926;8.608;2022-09-29T11:55:31;21.80;57.00
4306;DHT22;2166;49.926;8.608;2022-09-29T11:58:04;22.30;57.00
4306;DHT22;2166;49.926;8.608;2022-09-29T12:00:38;22.80;55.60
4306;DHT22;2166;49.926;8.608;2022-09-29T12:03:18;23.10;55.10
4306;DHT22;2166;49.926;8.608;2022-09-29T12:05:52;23.40;54.50
4306;DHT22;2166;49.926;8.608;2022-09-29T12:08:29;23.80;53.10
4306;DHT22;2166;49.926;8.608;2022-09-29T12:11:03;24.10;52.10
4306;DHT22;2166;49.926;8.608;2022-09-29T12:13:52;24.40;51.60
4306;DHT22;2166;49.926;8.608;2022-09-29T12:16:24;24.80;50.80
4306;DHT22;2166;49.926;8.608;2022-09-29T12:18:55;25.10;50.10
4306;DHT22;2166;49.926;8.608;2022-09-29T12:21:26;25.50;48.60
4306;DHT22;2166;49.926;8.608;2022-09-29T12:23:55;25.40;50.10
4306;DHT22;2166;49.926;8.608;2022-09-29T12:26:25;24.90;49.80
4306;DHT22;2166;49.926;8.608;2022-09-29T12:28:53;24.30;49.70
4306;DHT22;2166;49.926;8.608;2022-09-29T12:31:23;23.80;51.60
4306;DHT22;2166;49.926;8.608;2022-09-29T12:33:53;23.70;52.30
4306;DHT22;2166;49.926;8.608;2022-09-29T12:36:30;23.70;51.80
4306;DHT22;2166;49.926;8.608;2022-09-29T12:39:25;23.50;51.80
4306;DHT22;2166;49.926;8.608;2022-09-29T12:41:58;23.70;52.30
4306;DHT22;2166;49.926;8.608;2022-09-29T12:44:30;23.80;50.20
4306;DHT22;2166;49.926;8.608;2022-09-29T12:47:06;23.90;49.50
4306;DHT22;2166;49.926;8.608;2022-09-29T12:49:38;24.30;50.20
4306;DHT22;2166;49.926;8.608;2022-09-29T12:52:12;25.10;47.60
4306;DHT22;2166;49.926;8.608;2022-09-29T12:54:44;25.40;46.80
4306;DHT22;2166;49.926;8.608;2022-09-29T12:57:16;25.50;45.70
4306;DHT22;2166;49.926;8.608;2022-09-29T12:59:48;25.20;46.10
4306;DHT22;2166;49.926;8.608;2022-09-29T13:02:31;25.10;46.90
4306;DHT22;2166;49.926;8.608;2022-09-29T13:05:10;25.00;47.00
4306;DHT22;2166;49.926;8.608;2022-09-29T13:07:58;24.90;47.60
4306;DHT22;2166;49.926;8.608;2022-09-29T13:10:49;25.00;48.10
4306;DHT22;2166;49.926;8.608;2022-09-29T13:16:22;25.90;47.60
4306;DHT22;2166;49.926;8.608;2022-09-29T13:22:40;26.60;45.70
4306;DHT22;2166;49.926;8.608;2022-09-29T13:25:13;26.70;45.20
4306;DHT22;2166;49.926;8.608;2022-09-29T13:27:43;27.20;45.10
4306;DHT22;2166;49.926;8.608;2022-09-29T13:30:13;28.30;43.00
4306;DHT22;2166;49.926;8.608;2022-09-29T13:32:44;28.90;42.00
4306;DHT22;2166;49.926;8.608;2022-09-29T13:35:13;28.60;40.90
4306;DHT22;2166;49.926;8.608;2022-09-29T13:37:47;28.10;40.40
4306;DHT22;2166;49.926;8.608;2022-09-29T13:40:18;27.90;40.00
4306;DHT22;2166;49.926;8.608;2022-09-29T13:42:47;28.20;39.50
4306;DHT22;2166;49.926;8.608;2022-09-29T13:48:10;29.10;38.80
4306;DHT22;2166;49.926;8.608;2022-09-29T13:50:50;29.20;38.10
4306;DHT22;2166;49.926;8.608;2022-09-29T13:56:13;28.70;37.10
4306;DHT22;2166;49.926;8.608;2022-09-29T13:58:58;28.10;38.20
4306;DHT22;2166;49.926;8.608;2022-09-29T14:01:30;27.80;39.20
4306;DHT22;2166;49.926;8.608;2022-09-29T14:06:45;27.70;39.30
4306;DHT22;2166;49.926;8.608;2022-09-29T14:09:14;27.50;38.80
4306;DHT22;2166;49.926;8.608;2022-09-29T14:11:46;27.30;40.10
4306;DHT22;2166;49.926;8.608;2022-09-29T14:14:15;27.30;37.10
4306;DHT22;2166;49.926;8.608;2022-09-29T14:16:49;26.90;38.80
4306;DHT22;2166;49.926;8.608;2022-09-29T14:19:31;26.30;39.70
4306;DHT22;2166;49.926;8.608;2022-09-29T14:22:02;25.80;39.20
4306;DHT22;2166;49.926;8.608;2022-09-29T14:24:40;25.40;39.80
4306;DHT22;2166;49.926;8.608;2022-09-29T14:27:19;25.20;40.40
4306;DHT22;2166;49.926;8.608;2022-09-29T14:29:49;25.10;42.00
4306;DHT22;2166;49.926;8.608;2022-09-29T14:32:19;25.00;41.90
4306;DHT22;2166;49.926;8.608;2022-09-29T14:34:49;24.80;42.40
4306;DHT22;2166;49.926;8.608;2022-09-29T14:37:21;24.70;40.70
4306;DHT22;2166;49.926;8.608;2022-09-29T14:39:51;24.60;41.10
4306;DHT22;2166;49.926;8.608;2022-09-29T14:42:33;24.70;41.40
4306;DHT22;2166;49.926;8.608;2022-09-29T14:45:02;24.70;42.00
4306;DHT22;2166;49.926;8.608;2022-09-29T14:47:50;24.50;42.80
4306;DHT22;2166;49.926;8.608;2022-09-29T14:50:40;24.20;42.70
4306;DHT22;2166;49.926;8.608;2022-09-29T14:53:42;23.80;43.00
4306;DHT22;2166;49.926;8.608;2022-09-29T14:56:26;23.20;44.50
4306;DHT22;2166;49.926;8.608;2022-09-29T14:59:00;22.80;45.70
4306;DHT22;2166;49.926;8.608;2022-09-29T15:01:29;22.60;45.90
4306;DHT22;2166;49.926;8.608;2022-09-29T15:04:03;22.40;45.60
4306;DHT22;2166;49.926;8.608;2022-09-29T15:06:32;22.20;46.40
4306;DHT22;2166;49.926;8.608;2022-09-29T15:09:02;22.00;47.40
4306;DHT22;2166;49.926;8.608;2022-09-29T15:11:41;21.70;47.90
4306;DHT22;2166;49.926;8.608;2022-09-29T15:14:24;21.50;48.30
4306;DHT22;2166;49.926;8.608;2022-09-29T15:16:58;21.20;48.50
4306;DHT22;2166;49.926;8.608;2022-09-29T15:19:33;20.80;48.90
4306;DHT22;2166;49.926;8.608;2022-09-29T15:22:06;20.60;49.90
4306;DHT22;2166;49.926;8.608;2022-09-29T15:24:45;20.40;49.90
4306;DHT22;2166;49.926;8.608;2022-09-29T15:27:17;20.30;49.50
4306;DHT22;2166;49.926;8.608;2022-09-29T15:29:45;20.30;49.80
4306;DHT22;2166;49.926;8.608;2022-09-29T15:32:20;20.30;50.20
4306;DHT22;2166;49.926;8.608;2022-09-29T15:34:49;20.40;50.00
4306;DHT22;2166;49.926;8.608;2022-09-29T15:37:21;20.50;50.50
4306;DHT22;2166;49.926;8.608;2022-09-29T15:39:51;20.50;49.40
4306;DHT22;2166;49.926;8.608;2022-09-29T15:42:20;20.50;49.10
4306;DHT22;2166;49.926;8.608;2022-09-29T15:44:52;20.40;49.30
4306;DHT22;2166;49.926;8.608;2022-09-29T15:47:26;20.30;49.40
4306;DHT22;2166;49.926;8.608;2022-09-29T15:49:54;20.10;49.20
4306;DHT22;2166;49.926;8.608;2022-09-29T15:52:22;20.00;50.40
4306;DHT22;2166;49.926;8.608;2022-09-29T15:54:54;19.90;50.00
4306;DHT22;2166;49.926;8.608;2022-09-29T15:57:27;19.70;50.40
4306;DHT22;2166;49.926;8.608;2022-09-29T16:03:11;19.30;52.20
4306;DHT22;2166;49.926;8.608;2022-09-29T16:05:42;18.90;52.10
4306;DHT22;2166;49.926;8.608;2022-09-29T16:08:13;18.70;53.10
4306;DHT22;2166;49.926;8.608;2022-09-29T16:10:49;18.30;55.30
4306;DHT22;2166;49.926;8.608;2022-09-29T16:13:19;17.80;55.50
4306;DHT22;2166;49.926;8.608;2022-09-29T16:15:48;17.50;56.40
4306;DHT22;2166;49.926;8.608;2022-09-29T16:18:17;17.30;58.10
4306;DHT22;2166;49.926;8.608;2022-09-29T16:20:47;17.10;59.10
4306;DHT22;2166;49.926;8.608;2022-09-29T16:23:17;16.90;60.20
4306;DHT22;2166;49.926;8.608;2022-09-29T16:28:32;17.00;60.80
4306;DHT22;2166;49.926;8.608;2022-09-29T16:31:01;17.10;60.30
4306;DHT22;2166;49.926;8.608;2022-09-29T16:33:30;17.30;60.50
4306;DHT22;2166;49.926;8.608;2022-09-29T16:36:02;17.40;60.20
4306;DHT22;2166;49.926;8.608;2022-09-29T16:38:37;17.50;59.50
4306;DHT22;2166;49.926;8.608;2022-09-29T16:41:09;17.40;59.30
4306;DHT22;2166;49.926;8.608;2022-09-29T16:43:41;17.30;60.20
4306;DHT22;2166;49.926;8.608;2022-09-29T16:46:12;17.20;60.80
4306;DHT22;2166;49.926;8.608;2022-09-29T16:48:42;17.00;61.60
4306;DHT22;2166;49.926;8.608;2022-09-29T16:51:13;16.80;62.20
4306;DHT22;2166;49.926;8.608;2022-09-29T16:54:01;16.50;63.30
4306;DHT22;2166;49.926;8.608;2022-09-29T16:56:30;16.20;63.30
4306;DHT22;2166;49.926;8.608;2022-09-29T16:59:05;16.10;63.60
4306;DHT22;2166;49.926;8.608;2022-09-29T17:01:37;16.00;65.00
4306;DHT22;2166;49.926;8.608;2022-09-29T17:04:07;15.80;65.90
4306;DHT22;2166;49.926;8.608;2022-09-29T17:06:35;15.70;66.40